sensor_id;sensor_type;location;lat;lon;timestamp;P1;durP1;ratioP1;P2;durP2;ratioP2
3427;SDS011;1727;42.624;23.406;2023-03-08T00:01:19;10.57;;;7.93;;
3427;SDS011;1727;42.624;23.406;2023-03-08T00:03:49;16.43;;;9.43;;
3427;SDS011;1727;42.624;23.406;2023-03-08T00:06:17;28.10;;;15.70;;
3427;SDS011;1727;42.624;23.406;2023-03-08T00:08:44;28.83;;;17.30;;
3427;SDS011;1727;42.624;23.406;2023-03-08T00:11:12;19.77;;;12.33;;
3427;SDS011;1727;42.624;23.406;2023-03-08T00:13:40;23.03;;;11.67;;
3427;SDS011;1727;42.624;23.406;2023-03-08T00:16:08;15.80;;;9.53;;
3427;SDS011;1727;42.624;23.406;2023-03-08T00:18:37;12.23;;;8.57;;
3427;SDS011;1727;42.624;23.406;2023-03-08T00:21:04;14.60;;;9.40;;
3427;SDS011;1727;42.624;23.406;2023-03-08T00:23:33;15.77;;;8.33;;
3427;SDS011;1727;42.624;23.406;2023-03-08T00:26:00;10.20;;;7.10;;
3427;SDS011;1727;42.624;23.406;2023-03-08T00:28:27;13.27;;;8.00;;
3427;SDS011;1727;42.624;23.406;2023-03-08T00:30:56;11.10;;;8.53;;
3427;SDS011;1727;42.624;23.406;2023-03-08T00:33:24;11.83;;;7.27;;
3427;SDS011;1727;42.624;23.406;2023-03-08T00:35:54;11.50;;;7.97;;
3427;SDS011;1727;42.624;23.406;2023-03-08T00:38:22;17.03;;;8.93;;
3427;SDS011;1727;42.624;23.406;2023-03-08T00:40:49;11.90;;;8.27;;
3427;SDS011;1727;42.624;23.406;2023-03-08T00:43:16;13.60;;;8.70;;
3427;SDS011;1727;42.624;23.406;2023-03-08T00:45:43;11.97;;;7.70;;
3427;SDS011;1727;42.624;23.406;2023-03-08T00:48:11;14.53;;;7.93;;
3427;SDS011;1727;42.624;23.406;2023-03-08T00:50:38;15.10;;;7.43;;
3427;SDS011;1727;42.624;23.406;2023-03-08T00:53:05;14.70;;;8.70;;
3427;SDS011;1727;42.624;23.406;2023-03-08T00:55:32;18.40;;;8.33;;
3427;SDS011;1727;42.624;23.406;2023-03-08T00:57:59;10.80;;;7.37;;
3427;SDS011;1727;42.624;23.406;2023-03-08T01:00:26;10.30;;;5.83;;
3427;SDS011;1727;42.624;23.406;2023-03-08T01:02:54;12.17;;;7.90;;
3427;SDS011;1727;42.624;23.406;2023-03-08T01:05:22;31.40;;;13.77;;
3427;SDS011;1727;42.624;23.406;2023-03-08T01:07:49;35.13;;;13.57;;
3427;SDS011;1727;42.624;23.406;2023-03-08T01:10:16;22.63;;;12.47;;
3427;SDS011;1727;42.624;23.406;2023-03-08T01:12:43;19.77;;;11.07;;
3427;SDS011;1727;42.624;23.406;2023-03-08T01:15:10;20.33;;;10.37;;
3427;SDS011;1727;42.624;23.406;2023-03-08T01:17:37;21.67;;;8.83;;
3427;SDS011;1727;42.624;23.406;2023-03-08T01:20:04;13.77;;;8.53;;
3427;SDS011;1727;42.624;23.406;2023-03-08T01:22:34;12.53;;;7.50;;
3427;SDS011;1727;42.624;23.406;2023-03-08T01:25:00;17.97;;;6.77;;
3427;SDS011;1727;42.624;23.406;2023-03-08T01:27:27;10.90;;;6.20;;
3427;SDS011;1727;42.624;23.406;2023-03-08T01:29:54;11.33;;;7.70;;
3427;SDS011;1727;42.624;23.406;2023-03-08T01:32:20;9.17;;;5.53;;
3427;SDS011;1727;42.624;23.406;2023-03-08T01:34:47;6.87;;;6.00;;
3427;SDS011;1727;42.624;23.406;2023-03-08T01:37:14;8.90;;;5.73;;
3427;SDS011;1727;42.624;23.406;2023-03-08T01:39:42;8.83;;;5.70;;
3427;SDS011;1727;42.624;23.406;2023-03-08T01:42:09;10.30;;;6.07;;
3427;SDS011;1727;42.624;23.406;2023-03-08T01:44:49;8.83;;;5.63;;
3427;SDS011;1727;42.624;23.406;2023-03-08T01:47:18;5.77;;;4.90;;
3427;SDS011;1727;42.624;23.406;2023-03-08T01:49:45;5.30;;;4.80;;
3427;SDS011;1727;42.624;23.406;2023-03-08T01:52:13;5.90;;;5.17;;
3427;SDS011;1727;42.624;23.406;2023-03-08T01:54:50;10.07;;;5.90;;
3427;SDS011;1727;42.624;23.406;2023-03-08T01:57:21;10.23;;;4.80;;
3427;SDS011;1727;42.624;23.406;2023-03-08T01:59:51;8.07;;;5.60;;
3427;SDS011;1727;42.624;23.406;2023-03-08T02:02:21;7.67;;;4.93;;
3427;SDS011;1727;42.624;23.406;2023-03-08T02:04:51;9.20;;;5.90;;
3427;SDS011;1727;42.624;23.406;2023-03-08T02:07:18;9.50;;;5.70;;
3427;SDS011;1727;42.624;23.406;2023-03-08T02:09:45;6.70;;;6.07;;
3427;SDS011;1727;42.624;23.406;2023-03-08T02:12:15;8.13;;;5.20;;
3427;SDS011;1727;42.624;23.406;2023-03-08T02:14:42;5.73;;;5.13;;
3427;SDS011;1727;42.624;23.406;2023-03-08T02:17:10;11.00;;;6.70;;
3427;SDS011;1727;42.624;23.406;2023-03-08T02:19:40;6.37;;;5.30;;
3427;SDS011;1727;42.624;23.406;2023-03-08T02:22:10;5.97;;;5.13;;
3427;SDS011;1727;42.624;23.406;2023-03-08T02:24:39;7.67;;;5.50;;
3427;SDS011;1727;42.624;23.406;2023-03-08T02:27:08;6.37;;;5.60;;
3427;SDS011;1727;42.624;23.406;2023-03-08T02:29:38;6.17;;;5.33;;
3427;SDS011;1727;42.624;23.406;2023-03-08T02:32:05;9.90;;;6.50;;
3427;SDS011;1727;42.624;23.406;2023-03-08T02:34:32;10.93;;;6.70;;
3427;SDS011;1727;42.624;23.406;2023-03-08T02:36:59;8.10;;;6.33;;
3427;SDS011;1727;42.624;23.406;2023-03-08T02:39:26;8.20;;;6.60;;
3427;SDS011;1727;42.624;23.406;2023-03-08T02:41:54;10.93;;;7.30;;
3427;SDS011;1727;42.624;23.406;2023-03-08T02:44:21;9.80;;;6.57;;
3427;SDS011;1727;42.624;23.406;2023-03-08T02:46:48;9.73;;;6.43;;
3427;SDS011;1727;42.624;23.406;2023-03-08T02:49:16;14.40;;;9.97;;
3427;SDS011;1727;42.624;23.406;2023-03-08T02:51:43;7.03;;;6.27;;
3427;SDS011;1727;42.624;23.406;2023-03-08T02:54:09;9.37;;;7.03;;
3427;SDS011;1727;42.624;23.406;2023-03-08T02:56:36;14.07;;;8.03;;
3427;SDS011;1727;42.624;23.406;2023-03-08T02:59:04;12.20;;;7.40;;
3427;SDS011;1727;42.624;23.406;2023-03-08T03:01:31;9.37;;;5.80;;
3427;SDS011;1727;42.624;23.406;2023-03-08T03:03:58;6.57;;;4.90;;
3427;SDS011;1727;42.624;23.406;2023-03-08T03:06:25;8.60;;;5.30;;
3427;SDS011;1727;42.624;23.406;2023-03-08T03:08:51;7.83;;;5.13;;
3427;SDS011;1727;42.624;23.406;2023-03-08T03:11:19;5.77;;;4.77;;
3427;SDS011;1727;42.624;23.406;2023-03-08T03:13:52;7.57;;;5.40;;
3427;SDS011;1727;42.624;23.406;2023-03-08T03:16:21;9.63;;;5.33;;
3427;SDS011;1727;42.624;23.406;2023-03-08T03:18:48;11.00;;;6.00;;
3427;SDS011;1727;42.624;23.406;2023-03-08T03:21:15;9.20;;;6.30;;
3427;SDS011;1727;42.624;23.406;2023-03-08T03:23:42;7.13;;;6.20;;
3427;SDS011;1727;42.624;23.406;2023-03-08T03:26:09;9.30;;;5.73;;
3427;SDS011;1727;42.624;23.406;2023-03-08T03:28:37;8.00;;;5.23;;
3427;SDS011;1727;42.624;23.406;2023-03-08T03:31:05;7.20;;;6.17;;
3427;SDS011;1727;42.624;23.406;2023-03-08T03:33:34;12.17;;;7.07;;
3427;SDS011;1727;42.624;23.406;2023-03-08T03:36:01;15.43;;;6.10;;
3427;SDS011;1727;42.624;23.406;2023-03-08T03:38:28;14.73;;;7.90;;
3427;SDS011;1727;42.624;23.406;2023-03-08T03:40:59;14.37;;;8.40;;
3427;SDS011;1727;42.624;23.406;2023-03-08T03:43:26;13.53;;;7.40;;
3427;SDS011;1727;42.624;23.406;2023-03-08T03:45:54;8.60;;;6.07;;
3427;SDS011;1727;42.624;23.406;2023-03-08T03:48:24;7.83;;;5.20;;
3427;SDS011;1727;42.624;23.406;2023-03-08T03:50:56;8.10;;;6.03;;
3427;SDS011;1727;42.624;23.406;2023-03-08T03:53:24;7.20;;;6.40;;
3427;SDS011;1727;42.624;23.406;2023-03-08T03:55:53;8.87;;;6.43;;
3427;SDS011;1727;42.624;23.406;2023-03-08T03:58:20;12.03;;;6.10;;
3427;SDS011;1727;42.624;23.406;2023-03-08T04:00:47;12.73;;;7.37;;
3427;SDS011;1727;42.624;23.406;2023-03-08T04:03:13;8.30;;;6.53;;
3427;SDS011;1727;42.624;23.406;2023-03-08T04:05:40;7.97;;;6.10;;
3427;SDS011;1727;42.624;23.406;2023-03-08T04:08:08;6.50;;;5.50;;
3427;SDS011;1727;42.624;23.406;2023-03-08T04:10:35;13.83;;;6.27;;
3427;SDS011;1727;42.624;23.406;2023-03-08T04:13:02;8.47;;;5.23;;
3427;SDS011;1727;42.624;23.406;2023-03-08T04:15:29;6.93;;;5.23;;
3427;SDS011;1727;42.624;23.406;2023-03-08T04:17:55;11.27;;;6.03;;
3427;SDS011;1727;42.624;23.406;2023-03-08T04:20:22;10.37;;;5.87;;
3427;SDS011;1727;42.624;23.406;2023-03-08T04:22:49;7.33;;;4.87;;
3427;SDS011;1727;42.624;23.406;2023-03-08T04:25:17;6.90;;;5.00;;
3427;SDS011;1727;42.624;23.406;2023-03-08T04:27:44;8.20;;;5.47;;
3427;SDS011;1727;42.624;23.406;2023-03-08T04:30:12;7.50;;;5.70;;
3427;SDS011;1727;42.624;23.406;2023-03-08T04:32:39;5.77;;;5.10;;
3427;SDS011;1727;42.624;23.406;2023-03-08T04:35:06;6.37;;;5.20;;
3427;SDS011;1727;42.624;23.406;2023-03-08T04:37:33;6.47;;;4.80;;
3427;SDS011;1727;42.624;23.406;2023-03-08T04:40:01;10.40;;;5.23;;
3427;SDS011;1727;42.624;23.406;2023-03-08T04:42:32;5.93;;;5.33;;
3427;SDS011;1727;42.624;23.406;2023-03-08T04:44:59;8.70;;;5.53;;
3427;SDS011;1727;42.624;23.406;2023-03-08T04:47:26;10.70;;;7.80;;
3427;SDS011;1727;42.624;23.406;2023-03-08T04:49:52;9.40;;;7.43;;
3427;SDS011;1727;42.624;23.406;2023-03-08T04:52:19;9.65;;;6.95;;
3427;SDS011;1727;42.624;23.406;2023-03-08T04:54:46;17.90;;;6.87;;
3427;SDS011;1727;42.624;23.406;2023-03-08T04:57:13;11.80;;;6.17;;
3427;SDS011;1727;42.624;23.406;2023-03-08T04:59:43;7.03;;;6.10;;
3427;SDS011;1727;42.624;23.406;2023-03-08T05:02:10;8.63;;;5.20;;
3427;SDS011;1727;42.624;23.406;2023-03-08T05:04:37;6.60;;;5.50;;
3427;SDS011;1727;42.624;23.406;2023-03-08T05:07:03;7.73;;;5.67;;
3427;SDS011;1727;42.624;23.406;2023-03-08T05:09:30;15.87;;;6.33;;
3427;SDS011;1727;42.624;23.406;2023-03-08T05:11:57;9.50;;;6.33;;
3427;SDS011;1727;42.624;23.406;2023-03-08T05:14:27;8.57;;;5.40;;
3427;SDS011;1727;42.624;23.406;2023-03-08T05:16:56;14.43;;;5.90;;
3427;SDS011;1727;42.624;23.406;2023-03-08T05:19:23;12.23;;;6.80;;
3427;SDS011;1727;42.624;23.406;2023-03-08T05:21:50;76.47;;;25.40;;
3427;SDS011;1727;42.624;23.406;2023-03-08T05:24:17;46.53;;;17.27;;
3427;SDS011;1727;42.624;23.406;2023-03-08T05:26:44;48.30;;;19.13;;
3427;SDS011;1727;42.624;23.406;2023-03-08T05:29:10;37.10;;;17.77;;
3427;SDS011;1727;42.624;23.406;2023-03-08T05:31:37;36.20;;;14.90;;
3427;SDS011;1727;42.624;23.406;2023-03-08T05:34:05;15.20;;;9.57;;
3427;SDS011;1727;42.624;23.406;2023-03-08T05:36:32;8.83;;;7.07;;
3427;SDS011;1727;42.624;23.406;2023-03-08T05:38:59;14.77;;;6.10;;
3427;SDS011;1727;42.624;23.406;2023-03-08T05:41:25;10.33;;;7.33;;
3427;SDS011;1727;42.624;23.406;2023-03-08T05:43:52;12.50;;;6.10;;
3427;SDS011;1727;42.624;23.406;2023-03-08T05:46:19;13.00;;;6.10;;
3427;SDS011;1727;42.624;23.406;2023-03-08T05:48:46;11.13;;;6.30;;
3427;SDS011;1727;42.624;23.406;2023-03-08T05:51:15;8.40;;;6.70;;
3427;SDS011;1727;42.624;23.406;2023-03-08T05:53:43;9.37;;;6.07;;
3427;SDS011;1727;42.624;23.406;2023-03-08T05:56:11;20.17;;;6.97;;
3427;SDS011;1727;42.624;23.406;2023-03-08T05:58:39;8.67;;;7.03;;
3427;SDS011;1727;42.624;23.406;2023-03-08T06:01:10;14.83;;;9.50;;
3427;SDS011;1727;42.624;23.406;2023-03-08T06:03:38;12.93;;;7.60;;
3427;SDS011;1727;42.624;23.406;2023-03-08T06:06:05;18.83;;;7.53;;
3427;SDS011;1727;42.624;23.406;2023-03-08T06:08:33;13.10;;;7.50;;
3427;SDS011;1727;42.624;23.406;2023-03-08T06:11:00;15.27;;;8.83;;
3427;SDS011;1727;42.624;23.406;2023-03-08T06:13:26;14.60;;;9.67;;
3427;SDS011;1727;42.624;23.406;2023-03-08T06:15:53;19.73;;;10.47;;
3427;SDS011;1727;42.624;23.406;2023-03-08T06:18:21;19.67;;;10.70;;
3427;SDS011;1727;42.624;23.406;2023-03-08T06:20:55;12.27;;;8.07;;
3427;SDS011;1727;42.624;23.406;2023-03-08T06:23:23;19.00;;;8.90;;
3427;SDS011;1727;42.624;23.406;2023-03-08T06:25:52;13.53;;;8.80;;
3427;SDS011;1727;42.624;23.406;2023-03-08T06:28:19;21.10;;;8.00;;
3427;SDS011;1727;42.624;23.406;2023-03-08T06:30:46;11.10;;;7.60;;
3427;SDS011;1727;42.624;23.406;2023-03-08T06:33:14;11.83;;;8.70;;
3427;SDS011;1727;42.624;23.406;2023-03-08T06:35:41;27.00;;;10.40;;
3427;SDS011;1727;42.624;23.406;2023-03-08T06:38:08;19.37;;;11.40;;
3427;SDS011;1727;42.624;23.406;2023-03-08T06:40:35;13.50;;;10.30;;
3427;SDS011;1727;42.624;23.406;2023-03-08T06:43:03;19.47;;;11.90;;
3427;SDS011;1727;42.624;23.406;2023-03-08T06:45:30;20.77;;;11.97;;
3427;SDS011;1727;42.624;23.406;2023-03-08T06:47:57;20.07;;;11.30;;
3427;SDS011;1727;42.624;23.406;2023-03-08T06:50:24;25.97;;;11.90;;
3427;SDS011;1727;42.624;23.406;2023-03-08T06:52:51;24.13;;;12.57;;
3427;SDS011;1727;42.624;23.406;2023-03-08T06:55:18;18.13;;;8.43;;
3427;SDS011;1727;42.624;23.406;2023-03-08T06:57:45;16.50;;;9.30;;
3427;SDS011;1727;42.624;23.406;2023-03-08T07:00:13;17.40;;;10.80;;
3427;SDS011;1727;42.624;23.406;2023-03-08T07:02:41;14.57;;;7.97;;
3427;SDS011;1727;42.624;23.406;2023-03-08T07:05:08;9.50;;;6.43;;
3427;SDS011;1727;42.624;23.406;2023-03-08T07:07:35;8.57;;;6.63;;
3427;SDS011;1727;42.624;23.406;2023-03-08T07:10:04;10.47;;;6.53;;
3427;SDS011;1727;42.624;23.406;2023-03-08T07:12:31;8.27;;;5.27;;
3427;SDS011;1727;42.624;23.406;2023-03-08T07:15:00;9.63;;;5.50;;
3427;SDS011;1727;42.624;23.406;2023-03-08T07:17:28;8.50;;;5.50;;
3427;SDS011;1727;42.624;23.406;2023-03-08T07:19:57;9.80;;;7.50;;
3427;SDS011;1727;42.624;23.406;2023-03-08T07:22:26;7.20;;;6.20;;
3427;SDS011;1727;42.624;23.406;2023-03-08T07:24:55;8.10;;;6.17;;
3427;SDS011;1727;42.624;23.406;2023-03-08T07:27:22;12.20;;;6.60;;
3427;SDS011;1727;42.624;23.406;2023-03-08T07:29:48;13.53;;;7.60;;
3427;SDS011;1727;42.624;23.406;2023-03-08T07:32:15;11.47;;;7.40;;
3427;SDS011;1727;42.624;23.406;2023-03-08T07:34:43;10.90;;;6.13;;
3427;SDS011;1727;42.624;23.406;2023-03-08T07:37:11;11.63;;;7.33;;
3427;SDS011;1727;42.624;23.406;2023-03-08T07:39:38;8.77;;;7.27;;
3427;SDS011;1727;42.624;23.406;2023-03-08T07:42:05;9.40;;;6.40;;
3427;SDS011;1727;42.624;23.406;2023-03-08T07:44:31;14.97;;;7.20;;
3427;SDS011;1727;42.624;23.406;2023-03-08T07:46:58;9.90;;;7.30;;
3427;SDS011;1727;42.624;23.406;2023-03-08T07:49:25;11.27;;;8.10;;
3427;SDS011;1727;42.624;23.406;2023-03-08T07:51:53;13.50;;;9.40;;
3427;SDS011;1727;42.624;23.406;2023-03-08T07:54:20;15.27;;;8.90;;
3427;SDS011;1727;42.624;23.406;2023-03-08T07:56:47;11.20;;;7.73;;
3427;SDS011;1727;42.624;23.406;2023-03-08T07:59:14;12.30;;;7.57;;
3427;SDS011;1727;42.624;23.406;2023-03-08T08:01:41;12.67;;;7.67;;
3427;SDS011;1727;42.624;23.406;2023-03-08T08:04:07;13.17;;;7.40;;
3427;SDS011;1727;42.624;23.406;2023-03-08T08:06:36;15.80;;;7.17;;
3427;SDS011;1727;42.624;23.406;2023-03-08T08:09:05;11.20;;;6.57;;
3427;SDS011;1727;42.624;23.406;2023-03-08T08:11:32;11.00;;;7.63;;
3427;SDS011;1727;42.624;23.406;2023-03-08T08:13:59;22.37;;;9.63;;
3427;SDS011;1727;42.624;23.406;2023-03-08T08:16:26;14.20;;;8.50;;
3427;SDS011;1727;42.624;23.406;2023-03-08T08:18:53;12.80;;;7.50;;
3427;SDS011;1727;42.624;23.406;2023-03-08T08:21:20;15.30;;;9.27;;
3427;SDS011;1727;42.624;23.406;2023-03-08T08:23:47;11.77;;;6.97;;
3427;SDS011;1727;42.624;23.406;2023-03-08T08:26:16;7.83;;;6.20;;
3427;SDS011;1727;42.624;23.406;2023-03-08T08:28:44;11.40;;;6.40;;
3427;SDS011;1727;42.624;23.406;2023-03-08T08:31:13;8.13;;;5.83;;
3427;SDS011;1727;42.624;23.406;2023-03-08T08:33:41;14.53;;;8.67;;
3427;SDS011;1727;42.624;23.406;2023-03-08T08:36:10;12.37;;;6.97;;
3427;SDS011;1727;42.624;23.406;2023-03-08T08:38:38;12.33;;;7.70;;
3427;SDS011;1727;42.624;23.406;2023-03-08T08:41:07;8.17;;;5.60;;
3427;SDS011;1727;42.624;23.406;2023-03-08T08:43:36;6.30;;;5.40;;
3427;SDS011;1727;42.624;23.406;2023-03-08T08:46:03;7.40;;;5.60;;
3427;SDS011;1727;42.624;23.406;2023-03-08T08:48:30;8.13;;;5.23;;
3427;SDS011;1727;42.624;23.406;2023-03-08T08:50:58;7.67;;;5.63;;
3427;SDS011;1727;42.624;23.406;2023-03-08T08:53:25;9.63;;;6.50;;
3427;SDS011;1727;42.624;23.406;2023-03-08T08:55:53;8.83;;;5.17;;
3427;SDS011;1727;42.624;23.406;2023-03-08T08:58:19;8.77;;;6.10;;
3427;SDS011;1727;42.624;23.406;2023-03-08T09:00:48;11.13;;;5.60;;
3427;SDS011;1727;42.624;23.406;2023-03-08T09:03:15;9.20;;;5.60;;
3427;SDS011;1727;42.624;23.406;2023-03-08T09:05:42;6.97;;;5.77;;
3427;SDS011;1727;42.624;23.406;2023-03-08T09:08:10;15.50;;;6.70;;
3427;SDS011;1727;42.624;23.406;2023-03-08T09:10:38;15.30;;;6.60;;
3427;SDS011;1727;42.624;23.406;2023-03-08T09:13:06;10.30;;;5.77;;
3427;SDS011;1727;42.624;23.406;2023-03-08T09:15:33;11.13;;;5.80;;
3427;SDS011;1727;42.624;23.406;2023-03-08T09:18:02;7.90;;;5.30;;
3427;SDS011;1727;42.624;23.406;2023-03-08T09:20:28;10.30;;;6.50;;
3427;SDS011;1727;42.624;23.406;2023-03-08T09:22:55;10.43;;;5.50;;
3427;SDS011;1727;42.624;23.406;2023-03-08T09:25:22;15.50;;;6.33;;
3427;SDS011;1727;42.624;23.406;2023-03-08T09:27:49;10.63;;;5.90;;
3427;SDS011;1727;42.624;23.406;2023-03-08T09:30:16;5.57;;;4.60;;
3427;SDS011;1727;42.624;23.406;2023-03-08T09:32:43;15.97;;;6.80;;
3427;SDS011;1727;42.624;23.406;2023-03-08T09:35:11;11.70;;;6.30;;
3427;SDS011;1727;42.624;23.406;2023-03-08T09:37:39;16.80;;;6.73;;
3427;SDS011;1727;42.624;23.406;2023-03-08T09:40:09;7.70;;;6.20;;
3427;SDS011;1727;42.624;23.406;2023-03-08T09:42:43;12.47;;;6.60;;
3427;SDS011;1727;42.624;23.406;2023-03-08T09:45:15;10.63;;;5.70;;
3427;SDS011;1727;42.624;23.406;2023-03-08T09:47:48;6.90;;;6.20;;
3427;SDS011;1727;42.624;23.406;2023-03-08T09:53:11;8.37;;;6.20;;
3427;SDS011;1727;42.624;23.406;2023-03-08T09:55:44;10.90;;;5.60;;
3427;SDS011;1727;42.624;23.406;2023-03-08T09:58:16;12.57;;;6.10;;
3427;SDS011;1727;42.624;23.406;2023-03-08T10:00:47;12.13;;;5.80;;
3427;SDS011;1727;42.624;23.406;2023-03-08T10:03:19;7.83;;;5.10;;
3427;SDS011;1727;42.624;23.406;2023-03-08T10:05:58;9.00;;;6.13;;
3427;SDS011;1727;42.624;23.406;2023-03-08T10:08:31;12.83;;;7.10;;
3427;SDS011;1727;42.624;23.406;2023-03-08T10:11:01;11.37;;;7.47;;
3427;SDS011;1727;42.624;23.406;2023-03-08T10:13:32;22.07;;;7.93;;
3427;SDS011;1727;42.624;23.406;2023-03-08T10:16:03;19.03;;;8.17;;
3427;SDS011;1727;42.624;23.406;2023-03-08T10:18:38;15.47;;;8.70;;
3427;SDS011;1727;42.624;23.406;2023-03-08T10:21:11;14.13;;;8.20;;
3427;SDS011;1727;42.624;23.406;2023-03-08T10:23:41;16.07;;;7.53;;
3427;SDS011;1727;42.624;23.406;2023-03-08T10:26:10;10.43;;;8.10;;
3427;SDS011;1727;42.624;23.406;2023-03-08T10:28:38;16.10;;;8.40;;
3427;SDS011;1727;42.624;23.406;2023-03-08T10:31:16;15.47;;;8.50;;
3427;SDS011;1727;42.624;23.406;2023-03-08T10:33:45;11.10;;;9.17;;
3427;SDS011;1727;42.624;23.406;2023-03-08T10:36:19;17.47;;;8.80;;
3427;SDS011;1727;42.624;23.406;2023-03-08T10:39:05;11.93;;;7.67;;
3427;SDS011;1727;42.624;23.406;2023-03-08T10:41:39;16.57;;;8.93;;
3427;SDS011;1727;42.624;23.406;2023-03-08T10:44:09;13.70;;;7.90;;
3427;SDS011;1727;42.624;23.406;2023-03-08T10:46:44;12.67;;;7.73;;
3427;SDS011;1727;42.624;23.406;2023-03-08T10:49:14;15.50;;;7.80;;
3427;SDS011;1727;42.624;23.406;2023-03-08T10:51:52;8.43;;;7.30;;
3427;SDS011;1727;42.624;23.406;2023-03-08T10:54:20;14.03;;;7.97;;
3427;SDS011;1727;42.624;23.406;2023-03-08T10:56:51;12.93;;;7.33;;
3427;SDS011;1727;42.624;23.406;2023-03-08T10:59:21;8.07;;;7.10;;
3427;SDS011;1727;42.624;23.406;2023-03-08T11:01:56;12.43;;;7.07;;
3427;SDS011;1727;42.624;23.406;2023-03-08T11:04:27;10.60;;;7.33;;
3427;SDS011;1727;42.624;23.406;2023-03-08T11:06:57;10.77;;;6.70;;
3427;SDS011;1727;42.624;23.406;2023-03-08T11:09:25;16.20;;;6.63;;
3427;SDS011;1727;42.624;23.406;2023-03-08T11:11:53;14.63;;;8.07;;
3427;SDS011;1727;42.624;23.406;2023-03-08T11:14:21;8.83;;;6.73;;
3427;SDS011;1727;42.624;23.406;2023-03-08T11:16:50;12.47;;;7.53;;
3427;SDS011;1727;42.624;23.406;2023-03-08T11:19:33;11.10;;;6.63;;
3427;SDS011;1727;42.624;23.406;2023-03-08T11:22:28;12.70;;;6.60;;
3427;SDS011;1727;42.624;23.406;2023-03-08T11:25:14;8.00;;;7.20;;
3427;SDS011;1727;42.624;23.406;2023-03-08T11:27:54;10.30;;;8.13;;
3427;SDS011;1727;42.624;23.406;2023-03-08T11:30:47;18.47;;;7.70;;
3427;SDS011;1727;42.624;23.406;2023-03-08T11:33:31;10.73;;;7.60;;
3427;SDS011;1727;42.624;23.406;2023-03-08T11:36:11;13.87;;;7.43;;
3427;SDS011;1727;42.624;23.406;2023-03-08T11:38:50;10.70;;;7.47;;
3427;SDS011;1727;42.624;23.406;2023-03-08T11:41:23;12.30;;;6.90;;
3427;SDS011;1727;42.624;23.406;2023-03-08T11:44:04;11.50;;;6.53;;
3427;SDS011;1727;42.624;23.406;2023-03-08T11:46:56;9.37;;;7.20;;
3427;SDS011;1727;42.624;23.406;2023-03-08T11:49:38;10.17;;;7.03;;
3427;SDS011;1727;42.624;23.406;2023-03-08T11:52:21;9.37;;;5.97;;
3427;SDS011;1727;42.624;23.406;2023-03-08T11:55:00;7.87;;;5.60;;
3427;SDS011;1727;42.624;23.406;2023-03-08T11:57:34;14.63;;;8.30;;
3427;SDS011;1727;42.624;23.406;2023-03-08T12:00:04;15.40;;;7.20;;
3427;SDS011;1727;42.624;23.406;2023-03-08T12:02:39;8.40;;;6.10;;
3427;SDS011;1727;42.624;23.406;2023-03-08T12:05:11;6.73;;;5.50;;
3427;SDS011;1727;42.624;23.406;2023-03-08T12:07:42;8.37;;;5.53;;
3427;SDS011;1727;42.624;23.406;2023-03-08T12:10:17;11.70;;;5.93;;
3427;SDS011;1727;42.624;23.406;2023-03-08T12:12:47;8.57;;;4.73;;
3427;SDS011;1727;42.624;23.406;2023-03-08T12:15:20;7.07;;;5.40;;
3427;SDS011;1727;42.624;23.406;2023-03-08T12:17:53;10.10;;;5.73;;
3427;SDS011;1727;42.624;23.406;2023-03-08T12:20:24;9.17;;;7.10;;
3427;SDS011;1727;42.624;23.406;2023-03-08T12:22:58;10.13;;;6.23;;
3427;SDS011;1727;42.624;23.406;2023-03-08T12:25:33;9.60;;;5.33;;
3427;SDS011;1727;42.624;23.406;2023-03-08T12:28:04;7.97;;;5.73;;
3427;SDS011;1727;42.624;23.406;2023-03-08T12:30:42;5.47;;;4.80;;
3427;SDS011;1727;42.624;23.406;2023-03-08T12:33:20;6.03;;;5.40;;
3427;SDS011;1727;42.624;23.406;2023-03-08T12:35:49;16.43;;;5.47;;
3427;SDS011;1727;42.624;23.406;2023-03-08T12:38:27;8.57;;;4.50;;
3427;SDS011;1727;42.624;23.406;2023-03-08T12:40:57;9.93;;;4.60;;
3427;SDS011;1727;42.624;23.406;2023-03-08T12:43:29;8.03;;;4.20;;
3427;SDS011;1727;42.624;23.406;2023-03-08T12:46:01;3.27;;;2.97;;
3427;SDS011;1727;42.624;23.406;2023-03-08T12:48:31;8.73;;;3.50;;
3427;SDS011;1727;42.624;23.406;2023-03-08T12:51:02;10.77;;;3.60;;
3427;SDS011;1727;42.624;23.406;2023-03-08T12:53:37;5.70;;;3.57;;
3427;SDS011;1727;42.624;23.406;2023-03-08T12:56:16;7.07;;;3.20;;
3427;SDS011;1727;42.624;23.406;2023-03-08T12:58:48;3.60;;;3.30;;
3427;SDS011;1727;42.624;23.406;2023-03-08T13:01:26;3.87;;;3.40;;
3427;SDS011;1727;42.624;23.406;2023-03-08T13:03:56;3.43;;;3.10;;
3427;SDS011;1727;42.624;23.406;2023-03-08T13:06:43;8.57;;;3.97;;
3427;SDS011;1727;42.624;23.406;2023-03-08T13:09:29;6.87;;;4.30;;
3427;SDS011;1727;42.624;23.406;2023-03-08T13:12:09;6.70;;;4.50;;
3427;SDS011;1727;42.624;23.406;2023-03-08T13:14:44;6.20;;;3.90;;
3427;SDS011;1727;42.624;23.406;2023-03-08T13:17:33;5.07;;;3.90;;
3427;SDS011;1727;42.624;23.406;2023-03-08T13:20:07;7.83;;;4.07;;
3427;SDS011;1727;42.624;23.406;2023-03-08T13:22:42;4.97;;;3.33;;
3427;SDS011;1727;42.624;23.406;2023-03-08T13:25:17;3.47;;;3.17;;
3427;SDS011;1727;42.624;23.406;2023-03-08T13:27:56;14.97;;;3.80;;
3427;SDS011;1727;42.624;23.406;2023-03-08T13:30:28;8.00;;;4.27;;
3427;SDS011;1727;42.624;23.406;2023-03-08T13:32:58;5.63;;;3.53;;
3427;SDS011;1727;42.624;23.406;2023-03-08T13:35:26;7.57;;;4.30;;
3427;SDS011;1727;42.624;23.406;2023-03-08T13:37:53;7.27;;;3.83;;
3427;SDS011;1727;42.624;23.406;2023-03-08T13:40:21;5.17;;;3.00;;
3427;SDS011;1727;42.624;23.406;2023-03-08T13:42:54;3.63;;;2.87;;
3427;SDS011;1727;42.624;23.406;2023-03-08T13:45:22;2.80;;;2.50;;
3427;SDS011;1727;42.624;23.406;2023-03-08T13:47:50;3.10;;;2.80;;
3427;SDS011;1727;42.624;23.406;2023-03-08T13:50:19;4.60;;;3.00;;
3427;SDS011;1727;42.624;23.406;2023-03-08T13:52:52;3.30;;;2.97;;
3427;SDS011;1727;42.624;23.406;2023-03-08T13:55:20;3.40;;;2.67;;
3427;SDS011;1727;42.624;23.406;2023-03-08T13:57:53;4.43;;;3.77;;
3427;SDS011;1727;42.624;23.406;2023-03-08T14:00:27;7.00;;;5.13;;
3427;SDS011;1727;42.624;23.406;2023-03-08T14:02:55;21.13;;;9.13;;
3427;SDS011;1727;42.624;23.406;2023-03-08T14:05:23;3.20;;;2.90;;
3427;SDS011;1727;42.624;23.406;2023-03-08T14:07:55;4.00;;;3.00;;
3427;SDS011;1727;42.624;23.406;2023-03-08T14:10:24;6.70;;;3.17;;
3427;SDS011;1727;42.624;23.406;2023-03-08T14:12:58;12.10;;;2.40;;
3427;SDS011;1727;42.624;23.406;2023-03-08T14:15:25;3.67;;;2.97;;
3427;SDS011;1727;42.624;23.406;2023-03-08T14:17:52;3.90;;;2.90;;
3427;SDS011;1727;42.624;23.406;2023-03-08T14:20:19;9.80;;;3.50;;
3427;SDS011;1727;42.624;23.406;2023-03-08T14:22:49;4.23;;;3.37;;
3427;SDS011;1727;42.624;23.406;2023-03-08T14:25:22;3.57;;;3.13;;
3427;SDS011;1727;42.624;23.406;2023-03-08T14:27:51;5.57;;;3.30;;
3427;SDS011;1727;42.624;23.406;2023-03-08T14:30:20;18.77;;;3.97;;
3427;SDS011;1727;42.624;23.406;2023-03-08T14:33:00;3.20;;;2.33;;
3427;SDS011;1727;42.624;23.406;2023-03-08T14:35:30;6.50;;;2.70;;
3427;SDS011;1727;42.624;23.406;2023-03-08T14:38:00;3.90;;;2.90;;
3427;SDS011;1727;42.624;23.406;2023-03-08T14:40:29;4.93;;;3.33;;
3427;SDS011;1727;42.624;23.406;2023-03-08T14:42:57;5.83;;;3.00;;
3427;SDS011;1727;42.624;23.406;2023-03-08T14:45:31;3.40;;;2.67;;
3427;SDS011;1727;42.624;23.406;2023-03-08T14:48:00;4.70;;;2.63;;
3427;SDS011;1727;42.624;23.406;2023-03-08T14:50:28;5.47;;;2.00;;
3427;SDS011;1727;42.624;23.406;2023-03-08T14:52:58;5.77;;;2.67;;
3427;SDS011;1727;42.624;23.406;2023-03-08T14:55:26;6.03;;;2.43;;
3427;SDS011;1727;42.624;23.406;2023-03-08T14:57:56;3.20;;;2.60;;
3427;SDS011;1727;42.624;23.406;2023-03-08T15:00:26;5.10;;;2.40;;
3427;SDS011;1727;42.624;23.406;2023-03-08T15:02:55;4.67;;;3.17;;
3427;SDS011;1727;42.624;23.406;2023-03-08T15:05:22;4.53;;;2.70;;
3427;SDS011;1727;42.624;23.406;2023-03-08T15:07:50;4.87;;;4.23;;
3427;SDS011;1727;42.624;23.406;2023-03-08T15:10:19;6.00;;;2.63;;